• Join FlightAware (Why Join?)
  • Login
  • US Flag 
07:51PM EDT


 

Airport Tracker/Info


-or-


 

Live Flight TrackerFlight Track Log ✈ UAL4234 ✈ 28-Jan-2014 ✈ KEWR - KBWI

Flight Track Log - Related Links

Times and Time Zones

All times are in EST time to prevent confusion due to time zone crossing. See the UAL4234 flight status page for this flight to view local times or setup timezone preferences in your user account.

Time Position Orientation Groundspeed Altitude Reporting Facility
EST Latitude Longitude Course Direction KTS MPH feet Rate Location/Type
08:21AM 40.7000 -74.1500 246° West 165 190 1,500  Level New York TRACON
08:22AM 40.7500 -74.1500 360° North 199 229 3,800 2,400 Climbing New York TRACON
08:23AM 40.7500 -74.2167 270° West 233 268 6,100 2,700 Climbing New York TRACON
08:24AM 40.7167 -74.3000 242° Southwest 227 261 9,300 1,800 Climbing New York TRACON
08:25AM 40.5641 -74.4928 250° West  Level FlightAware Approximate
08:26AM 40.5396 -74.5829 250° West  Level FlightAware Approximate
08:26AM 40.6536 -74.4719 244° Southwest 273 314 12,000  Level New York Center
08:27AM 40.5146 -74.6727 246° West  Level FlightAware Approximate
08:27AM 40.6111 -74.5653 239° Southwest 287 330 13,600  Level New York Center
08:28AM 40.5706 -74.6533 239° Southwest 287 330 14,600 1,020 Climbing New York Center
08:29AM 40.5281 -74.7436 238° Southwest 287 330 15,700 660 Climbing New York Center
08:30AM 40.4897 -74.8261 239° Southwest 292 336 16,000 120 Climbing New York Center
08:31AM 40.4469 -74.9192 239° Southwest 292 336 16,000  Level New York Center
08:32AM 40.3961 -75.0033 232° Southwest 292 336 16,000  Level New York Center
08:33AM 40.3367 -75.0922 229° Southwest 304 350 16,000  Level New York Center
08:34AM 40.2794 -75.1703 226° Southwest 299 344 16,000  Level New York Center
08:35AM 40.2244 -75.2511 228° Southwest 305 351 16,000  Level New York Center
08:36AM 40.1694 -75.3236 225° Southwest 310 357 16,000  Level New York Center
08:37AM 40.1058 -75.4089 226° Southwest 305 351 16,000  Level New York Center
08:38AM 40.0550 -75.4814 228° Southwest 305 351 16,000  Level New York Center
08:39AM 39.9908 -75.5692 226° Southwest 305 351 16,000  Level New York Center
08:40AM 39.9400 -75.6417 228° Southwest 305 351 16,000  Level New York Center
08:41AM 39.8839 -75.7350 232° Southwest 305 351 16,000 -660 Level New York Center
08:44AM 39.7667 -75.9667 247° West 305 351 13,700 -1,020 Descending Potomac TRACON
08:46AM 39.6667 -76.1333 232° Southwest 233 268 11,500 -1,440 Descending Potomac TRACON
08:47AM 39.6167 -76.1833 218° Southwest 242 278 9,500 -1,980 Descending Potomac TRACON
08:48AM 39.5667 -76.2333 218° Southwest 242 278 7,800 -2,040 Descending Potomac TRACON
08:49AM 39.5167 -76.2833 218° Southwest 249 287 5,700 -1,440 Descending Potomac TRACON
08:50AM 39.4667 -76.3500 226° Southwest 258 297 5,000 -420 Descending Potomac TRACON
08:51AM 39.4167 -76.4000 218° Southwest 260 299 5,000 -120 Level Potomac TRACON
08:52AM 39.3500 -76.4167 191° South 266 306 4,800 -900 Descending Potomac TRACON
08:53AM 39.2667 -76.4333 189° South 257 296 3,300 -900 Descending Potomac TRACON
08:54AM 39.2000 -76.4333 180° South 222 255 3,000 -180 Descending Potomac TRACON
08:55AM 39.1500 -76.4500 194° South 218 251 3,000  Level Potomac TRACON
08:56AM 39.1000 -76.4667 195° South 201 231 3,100  Climbing Potomac TRACON
08:57AM 39.0500 -76.5000 207° Southwest 185 213 3,100  Level Potomac TRACON
08:58AM 39.0500 -76.5333 270° West 169 194 3,100 -300 Level Potomac TRACON
08:59AM 39.0667 -76.5833 293° West 160 184 2,600 -660 Descending Potomac TRACON
09:00AM 39.1000 -76.6167 322° Northwest 130 150 1,800 -840 Descending Potomac TRACON
09:01AM 39.1333 -76.6333 339° North 124 143 1,100 -780 Descending Potomac TRACON